Time;durP1;ratioP1;P1;durP2;ratioP2;P2;SDS_P1;SDS_P2;PMS_P1;PMS_P2;Temp;Humidity;BMP_temperature;BMP_pressure;BME280_temperature;BME280_humidity;BME280_pressure;Samples;Min_cycle;Max_cycle;Signal;HPM_P1;HPM_P2
2022/06/02 00:00:05;;;;;;;11.55;8.10;;;;;;;19.88;76.96;100098.88;5066212;28;20500;-29
2022/06/02 00:02:36;;;;;;;11.15;8.32;;;;;;;20.19;75.28;100091.34;5066525;28;20037;-29
2022/06/02 00:05:10;;;;;;;11.02;7.95;;;;;;;20.05;76.37;100080.34;5066363;28;20024;-28
2022/06/02 00:07:57;;;;;;;13.45;8.05;;;;;;;19.90;75.30;100091.28;5031757;28;20032;-29
2022/06/02 00:10:49;;;;;;;12.82;8.13;;;;;;;19.73;76.88;100090.84;5066197;28;20024;-29
2022/06/02 00:13:17;;;;;;;13.20;7.55;;;;;;;19.30;78.13;100091.25;5047749;28;20032;-35
2022/06/02 00:15:52;;;;;;;11.52;8.43;;;;;;;19.52;77.19;100098.22;5066410;28;20082;-30
2022/06/02 00:18:53;;;;;;;9.73;7.55;;;;;;;19.22;77.73;100100.75;5048014;28;20025;-28
2022/06/02 00:21:30;;;;;;;9.68;7.80;;;;;;;19.35;76.78;100104.78;5010100;28;20040;-28
2022/06/02 00:24:06;;;;;;;11.47;7.83;;;;;;;19.50;76.03;100095.78;5048132;28;20035;-29
2022/06/02 00:27:00;;;;;;;10.80;7.82;;;;;;;19.40;76.67;100101.25;5048013;28;20499;-34
2022/06/02 00:29:36;;;;;;;11.63;7.60;;;;;;;19.33;75.57;100089.91;5066058;28;20472;-31
2022/06/02 00:32:43;;;;;;;11.52;7.88;;;;;;;19.41;76.13;100097.44;5047738;28;20032;-29
2022/06/02 00:35:42;;;;;;;;;;;;;;;19.13;77.78;100091.59;5065716;28;20127;-31
2022/06/02 00:38:25;;;;;;;14.90;9.27;;;;;;;18.95;78.77;100084.88;5024705;28;19916;-29
2022/06/02 00:40:52;;;;;;;13.52;8.20;;;;;;;18.40;81.76;100081.94;5051434;28;20028;-32
2022/06/02 00:43:37;;;;;;;39.05;9.55;;;;;;;18.17;81.89;100101.38;5051810;28;20029;-29
2022/06/02 00:46:18;;;;;;;12.50;7.57;;;;;;;17.92;82.64;100094.88;5069962;28;20028;-29
2022/06/02 00:49:07;;;;;;;34.40;8.73;;;;;;;18.58;78.92;100096.00;5069558;28;20060;-32
2022/06/02 00:51:48;;;;;;;12.38;8.40;;;;;;;18.76;78.34;100084.63;5051644;28;20504;-29
2022/06/02 00:57:56;;;;;;;12.35;8.48;;;;;;;18.69;81.18;100084.09;5055134;28;20047;-31
2022/06/02 01:00:30;;;;;;;11.68;8.65;;;;;;;18.59;81.91;100073.28;5069648;28;20111;-29
2022/06/02 01:03:22;;;;;;;13.57;8.88;;;;;;;18.59;80.56;100059.78;5051101;28;20032;-31
2022/06/02 01:06:16;;;;;;;13.95;8.10;;;;;;;19.06;79.65;100080.25;5069049;28;20048;-29
2022/06/02 01:08:59;;;;;;;13.52;8.57;;;;;;;18.85;80.62;100074.91;5069572;28;20033;-31
2022/06/02 01:11:36;;;;;;;13.02;8.85;;;;;;;18.94;80.47;100077.03;5069152;28;20161;-29
2022/06/02 01:14:11;;;;;;;12.40;8.82;;;;;;;18.18;83.80;100060.63;5051132;28;20032;-30
2022/06/02 01:16:46;;;;;;;12.50;7.38;;;;;;;17.60;83.07;100076.16;5069007;28;20032;-32
2022/06/02 01:19:23;;;;;;;11.55;7.20;;;;;;;17.22;84.42;100076.28;5050849;28;20131;-29
2022/06/02 01:22:07;;;;;;;11.02;8.20;;;;;;;17.56;85.06;100073.16;5068783;28;20020;-31
2022/06/02 01:24:57;;;;;;;11.25;7.88;;;;;;;18.09;82.01;100067.63;5069018;28;20024;-30
2022/06/02 01:27:33;;;;;;;11.05;8.02;;;;;;;17.92;82.76;100073.28;5068858;28;20113;-29
2022/06/02 01:30:22;;;;;;;10.90;7.60;;;;;;;17.61;84.92;100075.88;5069141;28;20058;-29
2022/06/02 01:32:58;;;;;;;12.80;8.32;;;;;;;17.77;85.55;100076.72;5050515;28;20127;-31
2022/06/02 01:35:47;;;;;;;13.10;7.72;;;;;;;18.33;82.82;100081.44;5068687;28;20056;-30
2022/06/02 01:38:25;;;;;;;13.07;8.45;;;;;;;18.80;80.04;100076.81;5068486;28;20051;-29
2022/06/02 01:41:32;;;;;;;12.85;8.05;;;;;;;18.44;81.35;100084.94;5050720;28;20024;-33
2022/06/02 01:44:15;;;;;;;10.93;7.93;;;;;;;17.79;83.53;100062.97;5029911;28;20068;-32
2022/06/02 01:46:59;;;;;;;12.88;8.43;;;;;;;17.97;83.77;100075.97;5068216;28;20028;-29
2022/06/02 01:49:36;;;;;;;13.15;8.50;;;;;;;18.44;81.62;100069.53;5050030;28;20036;-32
2022/06/02 01:52:29;;;;;;;15.52;8.85;;;;;;;18.60;82.98;100053.31;5050638;28;20033;-32
2022/06/02 01:55:00;;;;;;;13.57;8.73;;;;;;;18.75;82.33;100064.09;5050272;28;20032;-29
2022/06/02 01:57:48;;;;;;;13.13;8.40;;;;;;;18.60;81.70;100067.63;5050044;28;20404;-28
2022/06/02 02:00:22;;;;;;;13.50;9.60;;;;;;;18.85;81.49;100064.09;5068539;28;20037;-31
2022/06/02 02:03:05;;;;;;;12.77;9.88;;;;;;;18.60;82.13;100034.41;5068037;28;20064;-31
2022/06/02 02:06:06;;;;;;;15.07;9.85;;;;;;;18.52;83.68;100064.69;5050067;28;20107;-29
2022/06/02 02:08:45;;;;;;;11.82;8.73;;;;;;;18.23;82.45;100038.22;5068457;28;20028;-31
2022/06/02 02:11:20;;;;;;;12.65;8.52;;;;;;;18.36;83.40;100061.97;5050095;28;20036;-29
2022/06/02 02:13:58;;;;;;;11.70;8.98;;;;;;;18.43;82.85;100059.81;5068099;28;20166;-30
2022/06/02 02:16:40;;;;;;;15.05;9.25;;;;;;;18.43;83.72;100061.72;5068313;28;20051;-33
2022/06/02 02:19:17;;;;;;;11.85;8.68;;;;;;;18.75;81.76;100060.59;5068213;28;20056;-28
2022/06/02 02:22:15;;;;;;;9.60;7.30;;;;;;;18.64;82.48;100062.50;5049879;28;20078;-33
2022/06/02 02:24:56;;;;;;;12.00;8.18;;;;;;;18.48;83.64;100065.19;5049902;28;20036;-30
2022/06/02 02:27:29;;;;;;;13.18;7.97;;;;;;;18.50;82.71;100037.13;5068020;28;20079;-30
2022/06/02 02:30:04;;;;;;;11.93;7.88;;;;;;;18.84;80.99;100053.59;5049746;28;20024;-28
2022/06/02 02:33:00;;;;;;;10.50;7.45;;;;;;;18.89;81.07;100060.84;5067937;28;20085;-29
2022/06/02 02:35:54;;;;;;;12.57;7.15;;;;;;;18.95;80.14;100063.25;5067653;28;20137;-30
2022/06/02 02:38:37;;;;;;;11.05;7.22;;;;;;;18.92;80.67;100063.00;5067606;28;20032;-28
2022/06/02 02:41:10;;;;;;;11.48;6.78;;;;;;;18.76;81.32;100060.31;5067412;28;20111;-34
2022/06/02 02:43:49;;;;;;;11.23;6.70;;;;;;;18.87;81.82;100067.34;5067612;28;20028;-30
2022/06/02 02:46:21;;;;;;;12.90;7.47;;;;;;;18.64;82.29;100062.50;5049619;28;20028;-28
2022/06/02 02:49:18;;;;;;;11.60;7.65;;;;;;;18.81;82.17;100068.44;5049110;28;20032;-28
2022/06/02 02:51:59;;;;;;;13.80;7.72;;;;;;;18.86;82.23;100073.03;5049407;28;20028;-32
2022/06/02 02:54:51;;;;;;;10.52;7.90;;;;;;;19.04;80.76;100072.44;5049217;28;20029;-29
2022/06/02 02:57:24;;;;;;;14.15;8.65;;;;;;;19.14;80.07;100060.75;5058549;28;20411;-31
2022/06/02 03:00:05;;;;;;;13.05;8.10;;;;;;;19.04;79.63;100050.00;5048679;28;20141;-29
2022/06/02 03:02:49;;;;;;;15.52;8.88;;;;;;;19.09;80.67;100077.03;5067469;28;20072;-29
2022/06/02 03:05:31;;;;;;;11.60;7.55;;;;;;;18.96;80.90;100075.72;5067160;28;20040;-29
2022/06/02 03:08:09;;;;;;;12.57;7.97;;;;;;;18.83;81.56;100055.44;5067397;28;20024;-29
2022/06/02 03:10:38;;;;;;;12.10;8.52;;;;;;;18.53;83.71;100052.78;5066979;28;20028;-28
2022/06/02 03:13:34;;;;;;;12.07;9.00;;;;;;;18.92;80.65;100071.09;5067644;28;20112;-34
2022/06/02 03:16:05;;;;;;;15.45;9.57;;;;;;;18.61;82.19;100058.47;5067070;28;20120;-33
2022/06/02 03:18:30;;;;;;;16.85;8.57;;;;;;;18.97;80.42;100087.31;5048651;28;21045;-29
2022/06/02 03:21:07;;;;;;;10.70;8.25;;;;;;;18.76;81.57;100092.72;5048984;28;20036;-29
2022/06/02 03:23:50;;;;;;;14.55;8.95;;;;;;;18.97;81.70;100092.72;5048900;28;20032;-29
2022/06/02 03:26:21;;;;;;;12.70;7.93;;;;;;;18.90;81.03;100076.81;5066777;28;20086;-31
2022/06/02 03:29:06;;;;;;;17.55;8.85;;;;;;;19.09;80.73;100085.13;5066350;28;20047;-33
2022/06/02 03:31:46;;;;;;;31.40;9.60;;;;;;;19.09;80.53;100085.13;5067054;28;20040;-28
2022/06/02 03:34:29;;;;;;;23.98;9.52;;;;;;;19.05;81.49;100094.88;5066970;28;20059;-31
2022/06/02 03:37:17;;;;;;;12.57;8.77;;;;;;;19.28;80.77;100090.72;5025084;28;20089;-37
2022/06/02 03:39:45;;;;;;;12.10;8.18;;;;;;;19.26;80.54;100090.19;5025619;28;20087;-28
2022/06/02 03:42:44;;;;;;;10.80;8.82;;;;;;;19.38;80.98;100096.09;5026502;28;20055;-30
2022/06/02 03:45:32;;;;;;;13.43;8.48;;;;;;;19.38;80.53;100081.78;5025761;28;20040;-31
2022/06/02 03:48:01;;;;;;;22.73;10.15;;;;;;;19.41;80.50;100097.44;5021063;28;20520;-29
2022/06/02 03:51:08;;;;;;;17.23;8.88;;;;;;;19.42;80.86;100088.25;5026859;28;20036;-29
2022/06/02 03:53:57;;;;;;;13.77;8.43;;;;;;;19.17;81.80;100089.97;5026297;28;20072;-28
2022/06/02 03:56:34;;;;;;;14.38;8.52;;;;;;;19.38;81.56;100098.00;5009111;28;20033;-28
2022/06/02 03:59:18;;;;;;;12.95;8.02;;;;;;;19.50;81.73;100087.66;5025388;28;20167;-33
2022/06/02 04:01:54;;;;;;;15.82;8.60;;;;;;;19.59;81.38;100102.22;5025227;28;20148;-29
2022/06/02 04:04:19;;;;;;;14.90;8.98;;;;;;;19.67;81.51;100103.53;5026392;28;20033;-32
2022/06/02 04:07:08;;;;;;;12.93;8.10;;;;;;;19.53;81.53;100089.81;5026686;28;20094;-29
2022/06/02 04:09:36;;;;;;;14.52;8.02;;;;;;;19.53;82.17;100106.03;5025080;28;20033;-31
2022/06/02 04:15:17;;;;;;;13.30;8.00;;;;;;;19.51;83.30;100105.50;5026690;28;20503;-29
2022/06/02 04:18:27;;;;;;;24.63;9.38;;;;;;;19.61;82.38;100105.47;5026077;28;20026;-29
2022/06/02 04:21:08;;;;;;;13.40;8.10;;;;;;;19.64;82.21;100112.22;5021159;28;20411;-29
2022/06/02 04:23:53;;;;;;;13.27;7.97;;;;;;;19.47;81.98;100112.56;5026341;28;20104;-33
2022/06/02 04:26:41;;;;;;;12.80;8.15;;;;;;;19.55;82.29;100113.88;5026417;28;20117;-30
2022/06/02 04:29:24;;;;;;;14.18;7.93;;;;;;;19.71;82.08;100120.06;5026470;28;20056;-33
2022/06/02 04:32:16;;;;;;;10.90;7.72;;;;;;;19.79;81.47;100114.06;5026499;28;20037;-29
2022/06/02 04:35:15;;;;;;;11.85;7.63;;;;;;;19.78;81.53;100113.28;5033668;28;20224;-31
2022/06/02 04:37:50;;;;;;;14.10;8.32;;;;;;;19.85;81.23;100112.97;5047755;28;20048;-34
2022/06/02 04:40:29;;;;;;;10.95;7.35;;;;;;;19.90;81.16;100115.66;5066445;28;20062;-29
2022/06/02 04:43:07;;;;;;;12.82;7.53;;;;;;;20.11;80.50;100105.50;5065982;28;21010;-30
2022/06/02 04:45:49;;;;;;;;;;;;;;;20.38;79.21;100115.03;5048626;28;20082;-29
2022/06/02 04:48:27;;;;;;;17.38;8.85;;;;;;;20.42;79.00;100114.19;5065877;28;20010;-30
2022/06/02 04:50:55;;;;;;;;;;;;;;;20.56;78.26;100122.47;5066861;28;20094;-29
2022/06/02 04:53:34;;;;;;;17.00;8.13;;;;;;;20.71;77.99;100124.25;5066011;28;19970;-29
2022/06/02 04:56:31;;;;;;;11.63;7.45;;;;;;;21.09;76.27;100124.44;5047847;28;20025;-30
2022/06/02 04:59:10;;;;;;;;;;;;;;;21.22;75.14;100120.25;5066260;28;20028;-29
2022/06/02 05:01:51;;;;;;;13.75;6.97;;;;;;;21.34;74.93;100120.63;5065900;28;19955;-29
2022/06/02 05:04:41;;;;;;;14.13;7.45;;;;;;;21.54;73.72;100116.91;5047957;28;20109;-30
2022/06/02 05:07:38;;;;;;;11.35;7.18;;;;;;;21.49;72.69;100097.97;5065881;28;20041;-31
2022/06/02 05:10:15;;;;;;;9.30;6.30;;;;;;;21.43;72.54;100120.81;5065823;28;20408;-32
2022/06/02 05:13:10;;;;;;;12.27;6.88;;;;;;;21.38;72.53;100121.66;5065915;28;20048;-37
2022/06/02 05:15:51;;;;;;;12.30;6.72;;;;;;;21.49;72.71;100116.94;5047915;28;20053;-32
2022/06/02 05:18:37;;;;;;;15.52;9.95;;;;;;;21.44;72.27;100114.31;5066003;28;20043;-31
2022/06/02 05:21:40;;;;;;;16.33;10.75;;;;;;;21.84;71.83;100112.97;5066115;28;20123;-30
2022/06/02 05:24:21;;;;;;;19.23;10.90;;;;;;;21.86;71.35;100112.66;5051447;28;20047;-29
2022/06/02 05:27:05;;;;;;;11.77;6.80;;;;;;;22.10;70.08;100119.94;5069406;28;20036;-31
2022/06/02 05:29:38;;;;;;;9.55;5.78;;;;;;;22.33;69.66;100119.09;5069434;28;20094;-30
2022/06/02 05:32:33;;;;;;;9.70;6.55;;;;;;;22.30;70.04;100119.66;5069242;28;20024;-32
2022/06/02 05:35:11;;;;;;;8.80;5.70;;;;;;;22.50;68.88;100118.53;5055297;28;20726;-28
2022/06/02 05:37:44;;;;;;;;;;;;;;;22.66;67.40;100127.25;5069564;28;20032;-35
2022/06/02 05:40:13;;;;;;;10.20;5.13;;;;;;;22.65;67.79;100131.06;5068838;28;19916;-29
2022/06/02 05:43:08;;;;;;;11.02;5.65;;;;;;;22.67;68.41;100128.84;5068804;28;20039;-30
2022/06/02 05:46:02;;;;;;;8.07;5.65;;;;;;;22.81;68.87;100124.25;5068687;28;20025;-32
2022/06/02 05:48:49;;;;;;;10.27;5.35;;;;;;;22.97;67.05;100126.69;5046820;28;20055;-29
2022/06/02 05:51:26;;;;;;;9.07;4.80;;;;;;;23.22;66.02;100128.94;5068958;28;20491;-29
2022/06/02 05:54:06;;;;;;;10.75;6.18;;;;;;;23.29;66.17;100116.84;5068612;28;20024;-29
2022/06/02 05:56:39;;;;;;;9.88;6.50;;;;;;;23.55;66.30;100142.44;5068664;28;20032;-32
2022/06/02 05:59:19;;;;;;;8.20;5.00;;;;;;;23.60;64.22;100139.63;5068549;28;20028;-29
2022/06/02 06:02:15;;;;;;;9.40;5.15;;;;;;;23.66;64.46;100127.53;5050269;28;20068;-29
2022/06/02 06:04:56;;;;;;;10.73;5.50;;;;;;;23.97;62.11;100136.97;5068248;28;20029;-31
2022/06/02 06:07:39;;;;;;;8.05;4.57;;;;;;;23.93;61.19;100130.53;5049986;28;20503;-33
2022/06/02 06:10:29;;;;;;;8.88;5.72;;;;;;;23.91;61.32;100130.84;5068521;28;20039;-33
2022/06/02 06:13:36;;;;;;;11.43;4.60;;;;;;;23.83;61.31;100126.09;5049998;28;20031;-29
2022/06/02 06:16:08;;;;;;;7.40;4.63;;;;;;;24.06;60.81;100132.41;5039249;28;20047;-30
2022/06/02 06:19:11;;;;;;;6.90;4.78;;;;;;;24.17;58.57;100130.22;5068037;28;20106;-40
2022/06/02 06:22:21;;;;;;;6.40;4.53;;;;;;;24.20;59.94;100130.44;5068021;28;20373;-29
2022/06/02 06:25:19;;;;;;;9.05;5.90;;;;;;;24.39;60.02;100132.97;5051825;28;20097;-29
2022/06/02 06:28:12;;;;;;;8.43;4.60;;;;;;;24.65;58.82;100132.38;5048703;28;20521;-29
2022/06/02 06:30:46;;;;;;;10.50;4.90;;;;;;;24.69;58.45;100127.91;5049824;28;20023;-29
2022/06/02 06:33:21;;;;;;;9.55;4.90;;;;;;;24.74;58.79;100129.69;5067345;28;20043;-34
2022/06/02 06:35:58;;;;;;;7.93;4.65;;;;;;;24.88;57.87;100126.88;5049439;28;20143;-29
2022/06/02 06:38:41;;;;;;;;;;;;;;;25.23;58.07;100128.69;5068304;28;20588;-32
2022/06/02 06:41:22;;;;;;;8.65;4.50;;;;;;;25.39;57.09;100128.25;5067956;28;19965;-32
2022/06/02 06:43:57;;;;;;;8.73;4.88;;;;;;;25.39;56.74;100125.50;5049507;28;20119;-29
2022/06/02 06:46:38;;;;;;;8.25;4.45;;;;;;;25.50;56.10;100126.84;5067805;28;20060;-31
2022/06/02 06:49:14;;;;;;;9.98;4.68;;;;;;;25.56;56.88;100130.19;5049481;28;20804;-29
2022/06/02 06:51:58;;;;;;;9.18;4.68;;;;;;;25.56;56.20;100130.19;5067486;28;20025;-29
2022/06/02 06:54:30;;;;;;;10.68;4.70;;;;;;;25.80;55.63;100118.84;5067702;28;20035;-31
2022/06/02 06:57:23;;;;;;;8.35;4.70;;;;;;;25.84;55.79;100130.75;5032479;28;20113;-30
2022/06/02 06:59:53;;;;;;;11.32;4.95;;;;;;;26.04;56.24;100129.34;5066783;28;20124;-30
2022/06/02 07:02:52;;;;;;;8.93;4.43;;;;;;;26.32;54.98;100129.81;5067332;28;20031;-30
2022/06/02 07:05:26;;;;;;;7.65;4.60;;;;;;;26.32;54.08;100118.88;5067149;28;20113;-30
2022/06/02 07:08:42;;;;;;;11.88;5.55;;;;;;;26.45;54.70;100137.03;5048617;28;20448;-30
2022/06/02 07:14:33;;;;;;;9.32;5.47;;;;;;;26.62;52.97;100132.69;4965609;28;21134;-30
2022/06/02 07:17:04;;;;;;;10.35;4.95;;;;;;;26.60;51.95;100129.47;5053608;28;20051;-38
2022/06/02 07:19:58;;;;;;;8.45;4.50;;;;;;;26.79;51.18;100132.66;5066962;28;20033;-31
2022/06/02 07:22:34;;;;;;;8.23;5.28;;;;;;;26.84;51.28;100134.41;5049052;28;20054;-32
2022/06/02 07:25:08;;;;;;;8.70;4.72;;;;;;;27.01;52.23;100122.59;5048771;28;20393;-34
2022/06/02 07:27:36;;;;;;;10.77;5.53;;;;;;;27.05;51.77;100124.38;5048937;28;20082;-35
2022/06/02 07:30:26;;;;;;;7.63;4.60;;;;;;;26.95;50.45;100135.66;5066893;28;20033;-33
2022/06/02 07:33:03;;;;;;;7.38;4.55;;;;;;;27.10;51.40;100131.59;5066289;28;20032;-34
2022/06/02 07:35:35;;;;;;;7.15;4.22;;;;;;;27.26;50.79;100134.59;5066445;28;20125;-30
2022/06/02 07:38:19;;;;;;;7.82;5.38;;;;;;;27.50;50.13;100133.97;5048591;28;20034;-34
2022/06/02 07:41:03;;;;;;;8.75;4.57;;;;;;;27.68;50.01;100122.94;5048317;28;20143;-33
2022/06/02 07:43:58;;;;;;;7.53;5.03;;;;;;;27.61;50.65;100124.25;5066661;28;20024;-29
2022/06/02 07:46:23;;;;;;;9.50;4.93;;;;;;;27.97;50.20;100124.81;5066616;28;20068;-29
2022/06/02 07:49:24;;;;;;;8.20;5.03;;;;;;;27.88;50.37;100124.91;5066171;28;20060;-32
2022/06/02 07:51:50;;;;;;;7.18;4.45;;;;;;;27.91;50.93;100127.00;5066276;28;20027;-34
2022/06/02 07:54:27;;;;;;;9.35;4.90;;;;;;;27.90;50.37;100119.09;5066529;28;20028;-34
2022/06/02 07:57:10;;;;;;;8.90;5.32;;;;;;;28.30;49.93;100124.88;5066187;28;20028;-30
2022/06/02 08:00:03;;;;;;;8.38;4.57;;;;;;;28.64;49.11;100121.00;5066112;28;20433;-31
2022/06/02 08:02:56;;;;;;;8.55;5.30;;;;;;;28.79;47.34;100127.81;5066487;28;20089;-29
2022/06/02 08:05:31;;;;;;;9.45;4.50;;;;;;;28.89;47.66;100125.75;5066917;28;20090;-31
2022/06/02 08:07:59;;;;;;;8.75;4.70;;;;;;;29.03;47.78;100117.97;5066427;28;20029;-29
2022/06/02 08:11:12;;;;;;;6.78;4.07;;;;;;;29.36;45.28;100117.91;5048515;28;20052;-32
2022/06/02 08:13:59;;;;;;;8.65;4.80;;;;;;;29.30;43.85;100112.97;5038137;28;20041;-29
2022/06/02 08:16:56;;;;;;;6.18;4.28;;;;;;;29.16;45.97;100105.91;5065918;28;20039;-30
2022/06/02 08:19:30;;;;;;;7.55;4.60;;;;;;;29.40;44.67;100118.00;5024418;28;20048;-38
2022/06/02 08:22:00;;;;;;;7.70;3.78;;;;;;;29.77;43.53;100109.72;5047868;28;20462;-34
2022/06/02 08:24:59;;;;;;;9.68;4.55;;;;;;;29.71;43.81;100113.88;5066124;28;20028;-34
2022/06/02 08:27:43;;;;;;;7.45;4.53;;;;;;;30.05;42.66;100109.75;5047923;28;20052;-31
2022/06/02 08:30:28;;;;;;;7.38;4.30;;;;;;;30.14;44.06;100109.59;5047969;28;20036;-29
2022/06/02 08:33:19;;;;;;;7.90;3.72;;;;;;;29.99;41.88;100111.16;5047727;28;20032;-30
2022/06/02 08:35:57;;;;;;;6.95;3.85;;;;;;;29.95;41.93;100111.06;5065930;28;20061;-32
2022/06/02 08:39:10;;;;;;;6.95;3.92;;;;;;;30.25;39.48;100110.72;5047881;28;20124;-29
2022/06/02 08:41:57;;;;;;;6.03;3.75;;;;;;;30.02;40.96;100111.28;5020851;28;20040;-31
2022/06/02 08:44:41;;;;;;;;;;;;;;;30.46;41.25;100093.22;5066424;28;20097;-30
2022/06/02 08:47:40;;;;;;;7.25;4.25;;;;;;;30.79;40.69;100112.97;5047581;28;20057;-34
2022/06/02 08:50:43;;;;;;;6.40;3.67;;;;;;;30.73;40.16;100106.13;5066111;28;20754;-31
2022/06/02 08:53:27;;;;;;;5.57;3.67;;;;;;;30.78;40.15;100100.34;5065982;28;20021;-30
2022/06/02 08:56:30;;;;;;;8.07;4.20;;;;;;;31.18;39.41;100104.09;5065784;28;20489;-30
2022/06/02 08:59:23;;;;;;;7.25;4.07;;;;;;;31.23;39.95;100095.56;5069510;28;20025;-31
2022/06/02 09:02:19;;;;;;;10.93;6.25;;;;;;;31.18;40.21;100104.09;5069427;28;20040;-30
2022/06/02 09:05:12;;;;;;;8.77;4.70;;;;;;;31.36;38.43;100105.31;5069493;28;20059;-29
2022/06/02 09:07:48;;;;;;;6.57;4.00;;;;;;;31.37;38.39;100084.09;5069553;28;20033;-33
2022/06/02 09:10:36;;;;;;;7.30;3.72;;;;;;;31.09;39.03;100073.19;5051157;28;20063;-33
2022/06/02 09:13:26;;;;;;;6.95;3.92;;;;;;;31.54;38.52;100100.22;5051423;28;20487;-36
2022/06/02 09:16:10;;;;;;;7.18;3.58;;;;;;;32.15;37.84;100095.22;5069240;28;20027;-32
2022/06/02 09:19:02;;;;;;;7.63;3.78;;;;;;;31.99;37.28;100104.34;5069107;28;20535;-32
2022/06/02 09:21:46;;;;;;;7.82;3.95;;;;;;;32.14;37.76;100088.91;5069619;28;20104;-32
2022/06/02 09:24:32;;;;;;;8.15;3.72;;;;;;;32.39;36.98;100088.59;5069257;28;20039;-31
2022/06/02 09:27:26;;;;;;;7.35;3.65;;;;;;;32.57;38.86;100088.91;5069273;28;20157;-31
2022/06/02 09:30:07;;;;;;;8.13;3.70;;;;;;;32.50;35.73;100077.72;5069262;28;20047;-34
2022/06/02 09:33:43;;;;;;;6.18;3.65;;;;;;;32.36;36.17;100095.59;5051132;28;20625;-34
2022/06/02 09:36:39;;;;;;;6.57;3.92;;;;;;;32.66;36.68;100083.16;5064718;28;20515;-32
2022/06/02 09:39:07;;;;;;;7.97;3.38;;;;;;;32.71;36.14;100083.63;5050754;28;20028;-29
2022/06/02 09:42:00;;;;;;;9.52;3.97;;;;;;;32.71;35.58;100085.59;5069122;28;20032;-34
2022/06/02 09:44:35;;;;;;;9.40;4.03;;;;;;;33.25;36.33;100083.75;5050766;28;20082;-31
2022/06/02 09:47:26;;;;;;;6.43;3.78;;;;;;;32.91;35.49;100091.84;5050503;28;20031;-29
2022/06/02 09:50:22;;;;;;;9.52;3.80;;;;;;;33.07;34.36;100089.75;5068837;28;20028;-33
2022/06/02 09:53:17;;;;;;;6.68;3.67;;;;;;;32.69;34.94;100080.44;5050249;28;20040;-34
2022/06/02 09:55:57;;;;;;;5.30;3.55;;;;;;;33.18;34.58;100060.34;5050401;28;20032;-34
2022/06/02 09:59:06;;;;;;;8.32;4.10;;;;;;;33.66;34.68;100075.63;5050322;28;20592;-35
2022/06/02 10:02:08;;;;;;;6.45;3.58;;;;;;;33.58;33.82;100075.50;5030208;28;20063;-32
2022/06/02 10:04:33;;;;;;;6.13;3.65;;;;;;;33.80;35.82;100076.59;5054495;28;20052;-41
2022/06/02 10:07:11;;;;;;;8.32;3.88;;;;;;;33.57;34.06;100082.22;5068321;28;20790;-31
2022/06/02 10:10:00;;;;;;;8.13;4.00;;;;;;;33.71;33.16;100075.28;5067233;28;20024;-33
2022/06/02 10:12:55;;;;;;;7.80;3.85;;;;;;;33.79;33.15;100076.97;5050393;28;20488;-31
2022/06/02 10:15:49;;;;;;;5.53;3.42;;;;;;;33.58;32.78;100075.50;5050266;28;20028;-31
2022/06/02 10:18:36;;;;;;;8.02;3.50;;;;;;;33.83;31.63;100064.78;5049798;28;20044;-30
2022/06/02 10:21:28;;;;;;;;;;;;;;;34.34;33.54;100059.81;5068910;28;20017;-31
2022/06/02 10:24:27;;;;;;;8.05;3.60;;;;;;;33.96;32.97;100068.09;5036536;28;19922;-32
2022/06/02 10:27:12;;;;;;;5.93;3.33;;;;;;;33.95;31.93;100049.91;5049714;28;20041;-31
2022/06/02 10:30:15;;;;;;;5.40;3.47;;;;;;;33.53;33.05;100056.50;5049540;28;20024;-30
2022/06/02 10:33:02;;;;;;;9.65;3.33;;;;;;;33.95;31.28;100054.66;5049630;28;20454;-30
2022/06/02 10:35:51;;;;;;;7.63;3.20;;;;;;;34.62;31.96;100048.22;5067566;28;20067;-33
2022/06/02 10:38:35;;;;;;;7.25;3.58;;;;;;;34.14;29.87;100053.69;5067935;28;20129;-30
2022/06/02 10:41:00;;;;;;;7.38;3.33;;;;;;;34.62;29.89;100053.75;5067800;28;20039;-34
2022/06/02 10:43:38;;;;;;;5.50;3.13;;;;;;;34.88;28.67;100052.00;5049294;28;20462;-30
2022/06/02 10:46:36;;;;;;;6.45;2.90;;;;;;;34.63;28.53;100038.72;5067580;28;20028;-34
2022/06/02 10:49:15;;;;;;;4.10;2.97;;;;;;;34.74;28.66;100039.63;5049902;28;20028;-31
2022/06/02 10:51:46;;;;;;;5.72;3.20;;;;;;;34.99;29.17;100041.78;5049501;28;20467;-33
2022/06/02 10:54:26;;;;;;;6.13;3.28;;;;;;;34.82;28.93;100021.09;5049508;28;20416;-30
2022/06/02 10:57:01;;;;;;;5.22;2.80;;;;;;;34.73;29.68;100038.03;5048869;28;20035;-29
2022/06/02 10:59:54;;;;;;;4.93;3.17;;;;;;;34.88;30.04;100033.41;5067336;28;20027;-33
2022/06/02 11:02:45;;;;;;;6.25;2.92;;;;;;;34.37;29.63;100020.31;5067382;28;20042;-35
2022/06/02 11:05:32;;;;;;;6.35;3.08;;;;;;;34.01;30.84;100020.72;5066995;28;20548;-32
2022/06/02 11:08:26;;;;;;;7.38;3.50;;;;;;;33.25;32.29;100022.94;5067648;28;20064;-32
2022/06/02 11:11:16;;;;;;;5.65;3.20;;;;;;;33.28;31.87;100027.72;5043034;28;20032;-32
2022/06/02 11:13:53;;;;;;;7.97;3.35;;;;;;;33.45;32.22;100023.56;5066917;28;20039;-31
2022/06/02 11:16:31;;;;;;;4.25;3.35;;;;;;;34.17;32.40;100011.44;5048906;28;20660;-37
2022/06/02 11:19:35;;;;;;;6.60;2.80;;;;;;;34.84;31.29;99998.53;5048572;28;20032;-29
2022/06/02 11:22:38;;;;;;;5.45;3.20;;;;;;;34.58;30.64;100008.63;5066681;28;20030;-31
2022/06/02 11:25:03;;;;;;;6.25;3.30;;;;;;;35.19;30.47;100015.41;5048697;28;20030;-37
2022/06/02 11:27:37;;;;;;;6.38;3.00;;;;;;;35.01;29.77;100014.50;5067354;28;20428;-29
2022/06/02 11:30:18;;;;;;;9.80;3.15;;;;;;;35.05;28.87;100020.06;5048751;28;20035;-35
2022/06/02 11:33:21;;;;;;;4.97;3.03;;;;;;;35.57;29.14;100007.69;5066655;28;20082;-32
2022/06/02 11:36:05;;;;;;;7.28;2.92;;;;;;;35.59;27.77;100016.41;5067077;28;20067;-33
2022/06/02 11:38:52;;;;;;;5.57;3.33;;;;;;;35.61;27.63;100013.22;5048488;28;20033;-32
2022/06/02 11:41:26;;;;;;;5.43;2.95;;;;;;;36.11;27.33;100007.06;5066846;28;20408;-31
2022/06/02 11:44:10;;;;;;;6.20;2.90;;;;;;;36.29;27.12;99995.97;5048312;28;20037;-29
2022/06/02 11:46:51;;;;;;;4.40;2.92;;;;;;;36.29;27.41;100007.91;5066288;28;20101;-32
2022/06/02 11:50:07;;;;;;;4.80;2.90;;;;;;;36.12;27.31;99991.97;5048638;28;20167;-33
2022/06/02 11:52:33;;;;;;;5.95;2.75;;;;;;;36.48;25.74;99992.81;5003783;28;20089;-30
2022/06/02 11:55:07;;;;;;;6.05;2.70;;;;;;;36.24;25.46;99997.16;5048414;28;20032;-33
2022/06/02 11:57:51;;;;;;;4.28;3.03;;;;;;;36.45;25.58;99981.69;5048265;28;20024;-30
2022/06/02 12:00:44;;;;;;;11.98;3.13;;;;;;;36.58;25.26;99980.13;5066325;28;20075;-32
2022/06/02 12:03:22;;;;;;;7.50;2.80;;;;;;;36.88;25.70;99976.13;5066528;28;20025;-29
2022/06/02 12:05:53;;;;;;;5.68;2.80;;;;;;;36.49;25.94;99976.94;5047975;28;20036;-31
2022/06/02 12:08:27;;;;;;;6.43;2.88;;;;;;;36.75;25.45;99976.53;5066619;28;20025;-30
2022/06/02 12:11:11;;;;;;;11.23;3.33;;;;;;;36.84;24.72;99972.53;5047846;28;20043;-30
2022/06/02 12:14:06;;;;;;;5.70;2.70;;;;;;;36.72;25.04;99963.47;5066798;28;20030;-32
2022/06/02 12:16:37;;;;;;;9.00;2.90;;;;;;;36.61;26.15;99968.19;5027496;28;20556;-37
2022/06/02 12:19:39;;;;;;;4.60;2.58;;;;;;;35.50;26.24;99963.28;5066514;28;20107;-33
2022/06/02 12:22:26;;;;;;;5.25;2.55;;;;;;;35.06;27.70;99950.38;5048104;28;20032;-30
2022/06/02 12:25:10;;;;;;;5.60;2.95;;;;;;;35.19;27.89;99953.66;5066094;28;20515;-31
2022/06/02 12:28:00;;;;;;;5.05;2.72;;;;;;;35.18;28.28;99952.84;5066134;28;20115;-30
2022/06/02 12:30:37;;;;;;;7.05;3.10;;;;;;;34.51;29.61;99950.41;5066081;28;20035;-31
2022/06/02 12:33:14;;;;;;;4.45;3.00;;;;;;;34.83;28.52;99941.56;5050694;28;20044;-34
2022/06/02 12:35:47;;;;;;;;;;;;;;;35.60;27.76;99945.88;5052208;28;20053;-31
2022/06/02 12:38:27;;;;;;;8.30;2.72;;;;;;;36.16;26.97;99942.84;5070096;28;19923;-32
2022/06/02 12:40:59;;;;;;;5.68;2.60;;;;;;;35.86;26.99;99943.97;5051439;28;20051;-32
2022/06/02 12:43:33;;;;;;;6.30;2.92;;;;;;;35.94;27.71;99942.81;5051841;28;20028;-34
2022/06/02 12:46:42;;;;;;;6.55;2.80;;;;;;;36.37;26.78;99923.41;5051766;28;20047;-31
2022/06/02 12:49:15;;;;;;;4.68;2.97;;;;;;;36.54;26.36;99932.09;5047596;28;20044;-35
2022/06/02 12:52:16;;;;;;;4.95;2.80;;;;;;;36.16;26.46;99931.72;5051846;28;20466;-30